ADDS METAR Data INFO
IDs: Format: Raw Decoded Include TAF

Data at: 1528 UTC 19 Jan 2018

METAR for:KLCK (Rickenbacker AFB, OH, US)
Text:KLCK 191515Z AUTO 21012KT 10SM CLR M05/M10 A3015 RMK AO2 T10481105
Temperature: -4.8°C ( 23°F)
Dewpoint:-10.5°C ( 13°F) [RH = 64%]
Pressure (altimeter):30.15 inches Hg (1021.1 mb)
Winds:from the SSW (210 degrees) at 14 MPH (12 knots; 6.2 m/s)
Visibility:10 or more sm (16+ km)
Ceiling:at least 12,000 feet AGL
Clouds:sky clear below 12,000 feet AGL
QC Flag:automated observation with no human augmentation